createdAt,value
2018-05-26T00:01:42.695Z,13.10
2018-05-26T00:04:11.060Z,13.10
2018-05-26T00:06:39.756Z,13.00
2018-05-26T00:09:08.104Z,12.90
2018-05-26T00:11:35.693Z,12.90
2018-05-26T00:14:03.305Z,12.90
2018-05-26T00:16:30.972Z,12.80
2018-05-26T00:18:58.562Z,12.80
2018-05-26T00:21:26.164Z,12.80
2018-05-26T00:23:54.544Z,12.70
2018-05-26T00:26:22.118Z,12.70
2018-05-26T00:28:50.488Z,12.60
2018-05-26T00:31:18.105Z,12.60
2018-05-26T00:33:45.694Z,12.60
2018-05-26T00:36:13.313Z,12.60
2018-05-26T00:38:40.901Z,12.70
2018-05-26T00:41:08.540Z,12.60
2018-05-26T00:43:36.901Z,12.70
2018-05-26T00:46:04.532Z,12.70
2018-05-26T00:48:32.116Z,12.70
2018-05-26T00:50:59.736Z,12.60
2018-05-26T00:53:27.315Z,12.60
2018-05-26T00:55:55.303Z,12.60
2018-05-26T00:58:22.879Z,12.60
2018-05-26T01:00:51.443Z,12.60
2018-05-26T01:03:19.113Z,12.60
2018-05-26T01:05:46.777Z,12.50
2018-05-26T01:08:14.709Z,12.40
2018-05-26T01:10:43.050Z,12.30
2018-05-26T01:13:10.651Z,12.20
2018-05-26T01:15:39.078Z,12.20
2018-05-26T01:18:06.668Z,12.20
2018-05-26T01:20:34.259Z,12.20
2018-05-26T01:23:01.886Z,12.20
2018-05-26T01:25:29.487Z,12.20
2018-05-26T01:27:57.072Z,12.10
2018-05-26T01:30:25.453Z,12.00
2018-05-26T01:32:53.804Z,11.90
2018-05-26T01:35:21.414Z,11.90
2018-05-26T01:37:49.800Z,11.90
2018-05-26T01:40:18.151Z,11.80
2018-05-26T01:42:45.745Z,11.80
2018-05-26T01:45:15.117Z,11.80
2018-05-26T01:47:42.735Z,11.70
2018-05-26T01:50:10.352Z,11.80
2018-05-26T01:52:37.959Z,11.80
2018-05-26T01:55:05.771Z,11.70
2018-05-26T01:57:33.344Z,11.70
2018-05-26T02:00:00.924Z,11.70
2018-05-26T02:02:28.565Z,11.70
2018-05-26T02:04:56.138Z,11.70
2018-05-26T02:07:23.729Z,11.60
2018-05-26T02:09:52.120Z,11.60
2018-05-26T02:12:20.480Z,11.50
2018-05-26T02:14:48.110Z,11.50
2018-05-26T02:17:15.694Z,11.50
2018-05-26T02:19:43.496Z,11.60
2018-05-26T02:22:11.089Z,11.60
2018-05-26T02:24:38.671Z,11.50
2018-05-26T02:27:06.321Z,11.40
2018-05-26T02:29:33.917Z,11.40
2018-05-26T02:32:01.500Z,11.40
2018-05-26T02:34:29.131Z,11.40
2018-05-26T02:36:56.767Z,11.30
2018-05-26T02:39:25.182Z,11.30
2018-05-26T02:41:52.783Z,11.20
2018-05-26T02:44:20.358Z,11.20
2018-05-26T02:46:48.013Z,11.10
2018-05-26T02:49:15.629Z,11.10
2018-05-26T02:51:43.979Z,11.00
2018-05-26T02:54:11.608Z,11.00
2018-05-26T02:56:39.272Z,11.00
2018-05-26T02:59:06.864Z,11.00
2018-05-26T03:01:34.452Z,11.00
2018-05-26T03:04:01.577Z,11.10
2018-05-26T03:06:34.823Z,11.00
2018-05-26T03:09:08.816Z,11.10
2018-05-26T03:11:42.080Z,11.00
2018-05-26T03:14:15.386Z,11.00
2018-05-26T03:16:43.792Z,11.00
2018-05-26T03:19:11.372Z,10.90
2018-05-26T03:21:39.882Z,10.90
2018-05-26T03:24:07.466Z,10.90
2018-05-26T03:26:35.087Z,10.90
2018-05-26T03:29:03.432Z,10.80
2018-05-26T03:31:31.038Z,10.80
2018-05-26T03:33:59.376Z,10.80
2018-05-26T03:36:27.052Z,10.80
2018-05-26T03:38:54.609Z,10.90
2018-05-26T03:41:22.226Z,10.90
2018-05-26T03:43:49.803Z,11.00
2018-05-26T03:46:17.455Z,11.10
2018-05-26T03:48:45.813Z,11.10
2018-05-26T03:51:13.638Z,11.00
2018-05-26T03:53:41.253Z,11.10
2018-05-26T03:56:21.052Z,11.10
2018-05-26T04:12:17.064Z,11.70
2018-05-26T04:14:44.635Z,11.70
2018-05-26T04:17:12.534Z,11.80
2018-05-26T04:19:40.886Z,11.90
2018-05-26T04:22:08.467Z,11.90
2018-05-26T04:24:36.085Z,12.00
2018-05-26T04:27:03.686Z,12.10
2018-05-26T04:29:31.258Z,12.20
2018-05-26T04:31:58.940Z,12.30
2018-05-26T04:34:26.574Z,12.40
2018-05-26T04:36:54.190Z,12.50
2018-05-26T04:39:22.543Z,12.70
2018-05-26T04:41:50.126Z,12.60
2018-05-26T04:44:17.728Z,12.80
2018-05-26T04:46:45.340Z,12.90
2018-05-26T04:49:12.964Z,13.00
2018-05-26T04:51:40.577Z,13.00
2018-05-26T04:54:08.202Z,13.20
2018-05-26T04:56:35.826Z,13.30
2018-05-26T04:59:04.218Z,13.70
2018-05-26T05:01:33.008Z,13.90
2018-05-26T05:04:01.413Z,14.10
2018-05-26T05:06:29.059Z,14.10
2018-05-26T05:08:57.460Z,14.40
2018-05-26T05:11:25.312Z,14.40
2018-05-26T05:13:53.735Z,14.60
2018-05-26T05:16:21.320Z,14.60
2018-05-26T05:18:48.927Z,14.60
2018-05-26T05:21:17.297Z,14.40
2018-05-26T05:23:44.936Z,14.40
2018-05-26T05:26:12.528Z,14.40
2018-05-26T05:28:40.256Z,14.60
2018-05-26T05:31:07.891Z,14.80
2018-05-26T05:33:35.469Z,15.10
2018-05-26T05:36:03.073Z,15.30
2018-05-26T05:38:30.970Z,15.50
2018-05-26T05:40:58.613Z,15.80
2018-05-26T05:43:26.244Z,15.90
2018-05-26T05:45:53.859Z,16.00
2018-05-26T05:48:21.466Z,16.10
2018-05-26T05:50:49.120Z,16.30
2018-05-26T05:53:17.515Z,16.30
2018-05-26T05:55:45.091Z,16.30
2018-05-26T05:58:12.702Z,16.50
2018-05-26T06:00:40.342Z,16.50
2018-05-26T06:03:08.950Z,16.60
2018-05-26T06:05:36.625Z,16.80
2018-05-26T06:08:05.150Z,16.90
2018-05-26T06:10:32.789Z,16.90
2018-05-26T06:13:00.418Z,17.00
2018-05-26T06:15:28.054Z,17.00
2018-05-26T06:17:55.705Z,17.20
2018-05-26T06:20:23.339Z,17.30
2018-05-26T06:22:50.939Z,17.40
2018-05-26T06:25:19.318Z,17.60
2018-05-26T06:27:47.668Z,17.70
2018-05-26T06:30:15.293Z,17.60
2018-05-26T06:32:42.948Z,17.70
2018-05-26T06:35:10.576Z,17.80
2018-05-26T06:37:38.175Z,18.00
2018-05-26T06:40:06.912Z,18.10
2018-05-26T06:42:34.523Z,18.10
2018-05-26T06:45:02.974Z,18.50
2018-05-26T06:47:30.702Z,18.40
2018-05-26T06:49:58.288Z,18.60
2018-05-26T06:52:25.869Z,18.70
2018-05-26T06:54:53.523Z,18.80
2018-05-26T06:57:21.121Z,19.00
2018-05-26T06:59:48.778Z,19.00
2018-05-26T07:02:16.811Z,19.20
2018-05-26T07:04:44.459Z,19.50
2018-05-26T07:07:12.075Z,19.50
2018-05-26T07:09:39.833Z,20.00
2018-05-26T07:12:07.457Z,20.10
2018-05-26T07:14:35.819Z,20.60
2018-05-26T07:17:04.196Z,20.80
2018-05-26T07:19:32.609Z,20.80
2018-05-26T07:22:00.261Z,20.80
2018-05-26T07:24:28.638Z,21.50
2018-05-26T07:26:56.289Z,21.50
2018-05-26T07:29:23.902Z,22.00
2018-05-26T07:31:51.555Z,22.10
2018-05-26T07:34:19.972Z,22.80
2018-05-26T07:36:47.584Z,22.70
2018-05-26T07:39:15.237Z,23.10
2018-05-26T07:41:42.824Z,23.10
2018-05-26T07:44:10.462Z,23.10
2018-05-26T07:46:38.058Z,23.40
2018-05-26T07:49:06.450Z,23.60
2018-05-26T07:51:34.811Z,24.20
2018-05-26T07:54:02.429Z,24.20
2018-05-26T07:56:30.025Z,24.10
2018-05-26T07:58:57.681Z,23.90
2018-05-26T08:01:25.283Z,24.60
2018-05-26T08:03:52.910Z,25.40
2018-05-26T08:06:20.508Z,25.50
2018-05-26T08:08:48.130Z,25.80
2018-05-26T08:11:15.735Z,26.10
2018-05-26T08:13:43.361Z,26.30
2018-05-26T08:16:10.985Z,26.20
2018-05-26T08:18:39.379Z,26.70
2018-05-26T08:21:07.748Z,26.60
2018-05-26T08:23:36.148Z,26.70
2018-05-26T08:26:04.535Z,26.70
2018-05-26T08:28:32.891Z,26.80
2018-05-26T08:31:00.565Z,26.80
2018-05-26T08:33:28.270Z,27.00
2018-05-26T08:35:56.106Z,26.90
2018-05-26T08:38:24.472Z,27.40
2018-05-26T08:40:52.073Z,27.30
2018-05-26T08:43:19.706Z,27.20
2018-05-26T08:45:47.326Z,27.40
2018-05-26T08:48:15.011Z,27.50
2018-05-26T08:50:42.620Z,27.90
2018-05-26T08:53:11.002Z,28.10
2018-05-26T08:55:38.649Z,28.10
2018-05-26T08:58:06.313Z,28.30
2018-05-26T09:00:33.937Z,28.50
2018-05-26T09:03:01.544Z,28.70
2018-05-26T09:05:29.138Z,28.50
2018-05-26T09:07:57.526Z,28.60
2018-05-26T09:10:25.912Z,29.00
2018-05-26T09:12:54.276Z,29.20
2018-05-26T09:15:21.898Z,29.20
2018-05-26T09:17:49.496Z,29.40
2018-05-26T09:20:17.119Z,29.50
2018-05-26T09:22:44.744Z,29.30
2018-05-26T09:25:12.444Z,28.90
2018-05-26T09:27:40.529Z,28.80
2018-05-26T09:30:08.224Z,29.20
2018-05-26T09:32:35.858Z,29.20
2018-05-26T09:35:03.483Z,29.50
2018-05-26T09:37:31.088Z,29.90
2018-05-26T09:39:58.750Z,30.50
2018-05-26T09:42:26.379Z,30.10
2018-05-26T09:44:54.018Z,30.50
2018-05-26T09:47:21.679Z,29.70
2018-05-26T09:49:49.323Z,30.20
2018-05-26T09:52:17.014Z,30.40
2018-05-26T09:54:44.642Z,30.20
2018-05-26T09:57:13.113Z,30.60
2018-05-26T09:59:40.758Z,30.60
2018-05-26T10:02:08.391Z,30.30
2018-05-26T10:04:36.000Z,30.30
2018-05-26T10:07:03.623Z,30.00
2018-05-26T10:09:31.264Z,30.00
2018-05-26T10:11:59.664Z,31.00
2018-05-26T10:14:27.292Z,31.00
2018-05-26T10:16:56.001Z,31.20
2018-05-26T10:19:24.380Z,31.40
2018-05-26T10:21:52.737Z,31.50
2018-05-26T10:24:20.361Z,31.50
2018-05-26T10:26:48.147Z,31.70
2018-05-26T10:29:15.778Z,31.70
2018-05-26T10:31:43.388Z,31.70
2018-05-26T10:34:11.188Z,31.90
2018-05-26T10:36:38.833Z,31.90
2018-05-26T10:39:06.460Z,31.40
2018-05-26T10:41:34.113Z,31.30
2018-05-26T10:44:01.746Z,31.70
2018-05-26T10:46:29.398Z,32.30
2018-05-26T10:48:57.068Z,32.40
2018-05-26T10:51:24.747Z,32.60
2018-05-26T10:53:52.376Z,32.50
2018-05-26T10:56:20.066Z,32.90
2018-05-26T10:58:47.694Z,33.10
2018-05-26T11:01:15.280Z,33.60
2018-05-26T11:03:42.909Z,33.10
2018-05-26T11:06:11.325Z,33.80
2018-05-26T11:08:38.912Z,33.80
2018-05-26T11:11:06.536Z,33.50
2018-05-26T11:13:34.179Z,33.80
2018-05-26T11:16:01.807Z,33.30
2018-05-26T11:18:29.536Z,33.30
2018-05-26T11:20:57.227Z,32.40
2018-05-26T11:23:24.853Z,32.10
2018-05-26T11:25:52.592Z,32.00
2018-05-26T11:28:20.224Z,32.30
2018-05-26T11:30:48.153Z,32.60
2018-05-26T11:33:16.763Z,33.00
2018-05-26T11:35:45.110Z,33.20
2018-05-26T11:38:12.742Z,33.20
2018-05-26T11:40:40.413Z,33.40
2018-05-26T11:43:08.078Z,33.00
2018-05-26T11:45:35.728Z,33.20
2018-05-26T11:48:03.325Z,32.80
2018-05-26T11:50:31.739Z,33.30
2018-05-26T11:52:59.387Z,33.10
2018-05-26T11:55:26.986Z,33.40
2018-05-26T11:57:55.361Z,33.00
2018-05-26T12:00:23.779Z,33.40
2018-05-26T12:02:51.423Z,33.40
2018-05-26T12:05:19.034Z,33.70
2018-05-26T12:07:46.773Z,33.70
2018-05-26T12:10:14.411Z,33.70
2018-05-26T12:12:42.800Z,34.30
2018-05-26T12:15:11.217Z,33.40
2018-05-26T12:17:38.813Z,33.40
2018-05-26T12:20:06.620Z,34.00
2018-05-26T12:22:34.977Z,34.20
2018-05-26T12:25:02.685Z,34.20
2018-05-26T12:27:30.299Z,34.00
2018-05-26T12:29:57.888Z,33.20
2018-05-26T12:32:25.528Z,32.90
2018-05-26T12:34:53.140Z,32.70
2018-05-26T12:37:21.531Z,32.50
2018-05-26T12:39:49.164Z,32.50
2018-05-26T12:42:16.774Z,33.30
2018-05-26T12:44:44.383Z,33.40
2018-05-26T12:47:11.998Z,33.80
2018-05-26T12:49:39.612Z,34.60
2018-05-26T12:52:07.241Z,34.50
2018-05-26T12:54:34.849Z,34.70
2018-05-26T12:57:03.341Z,34.80
2018-05-26T12:59:30.961Z,34.90
2018-05-26T13:01:58.583Z,34.50
2018-05-26T13:04:26.207Z,34.50
2018-05-26T13:06:53.790Z,35.10
2018-05-26T13:09:21.425Z,34.30
2018-05-26T13:11:49.040Z,33.50
2018-05-26T13:14:16.700Z,32.90
2018-05-26T13:16:44.544Z,32.30
2018-05-26T13:19:12.136Z,32.80
2018-05-26T13:21:39.754Z,33.20
2018-05-26T13:24:07.771Z,33.40
2018-05-26T13:26:35.397Z,33.50
2018-05-26T13:29:03.011Z,33.60
2018-05-26T13:31:30.706Z,33.00
2018-05-26T13:33:58.388Z,32.70
2018-05-26T13:36:26.001Z,32.60
2018-05-26T13:38:53.651Z,32.70
2018-05-26T13:41:21.247Z,32.30
2018-05-26T13:43:48.869Z,31.90
2018-05-26T13:46:16.476Z,31.60
2018-05-26T13:48:45.163Z,30.10
2018-05-26T13:51:12.792Z,30.00
2018-05-26T13:53:40.485Z,29.50
2018-05-26T13:56:08.151Z,29.30
2018-05-26T13:58:35.756Z,27.60
2018-05-26T14:01:03.405Z,27.80
2018-05-26T14:03:31.807Z,27.40
2018-05-26T14:05:59.423Z,27.40
2018-05-26T14:08:27.078Z,27.00
2018-05-26T14:10:54.753Z,26.90
2018-05-26T14:13:22.348Z,27.00
2018-05-26T14:15:50.760Z,26.80
2018-05-26T14:18:18.396Z,26.80
2018-05-26T14:20:46.064Z,26.70
2018-05-26T14:23:14.501Z,26.20
2018-05-26T14:25:42.164Z,26.10
2018-05-26T14:28:09.800Z,25.70
2018-05-26T14:30:38.240Z,26.20
2018-05-26T14:33:05.871Z,26.20
2018-05-26T14:35:33.518Z,26.00
2018-05-26T14:38:01.179Z,25.80
2018-05-26T14:40:29.574Z,25.60
2018-05-26T14:42:57.168Z,25.60
2018-05-26T14:45:24.874Z,25.50
2018-05-26T14:47:53.320Z,25.90
2018-05-26T14:50:20.937Z,25.90
2018-05-26T14:52:49.336Z,25.70
2018-05-26T14:55:16.996Z,25.70
2018-05-26T14:57:45.370Z,25.30
2018-05-26T15:00:12.982Z,25.30
2018-05-26T15:02:40.616Z,25.20
2018-05-26T15:05:08.979Z,25.20
2018-05-26T15:07:36.579Z,25.20
2018-05-26T15:10:04.223Z,25.00
2018-05-26T15:12:32.582Z,25.30
2018-05-26T15:15:00.181Z,25.30
2018-05-26T15:17:28.886Z,25.60
2018-05-26T15:19:56.571Z,25.60
2018-05-26T15:22:24.189Z,26.20
2018-05-26T15:24:52.558Z,26.00
2018-05-26T15:27:20.217Z,26.00
2018-05-26T15:29:47.860Z,25.90
2018-05-26T15:32:15.469Z,25.70
2018-05-26T15:34:43.888Z,25.70
2018-05-26T15:37:11.484Z,25.70
2018-05-26T15:39:39.093Z,25.70
2018-05-26T15:42:07.528Z,25.40
2018-05-26T15:44:35.136Z,25.40
2018-05-26T15:47:03.537Z,25.70
2018-05-26T15:49:32.126Z,25.80
2018-05-26T15:51:59.847Z,25.80
2018-05-26T15:54:27.435Z,26.00
2018-05-26T15:56:55.250Z,25.90
2018-05-26T15:59:22.843Z,25.70
2018-05-26T16:01:50.571Z,25.80
2018-05-26T16:04:18.202Z,25.50
2018-05-26T16:06:45.821Z,25.20
2018-05-26T16:09:13.500Z,25.30
2018-05-26T16:11:41.155Z,25.20
2018-05-26T16:14:08.750Z,25.10
2018-05-26T16:16:36.866Z,25.10
2018-05-26T16:19:05.270Z,25.00
2018-05-26T16:21:32.894Z,25.00
2018-05-26T16:24:00.495Z,24.80
2018-05-26T16:26:28.165Z,24.70
2018-05-26T16:28:57.277Z,24.60
2018-05-26T16:31:24.871Z,24.60
2018-05-26T16:33:52.546Z,24.50
2018-05-26T16:36:20.175Z,24.40
2018-05-26T16:38:47.858Z,24.20
2018-05-26T16:41:15.550Z,24.40
2018-05-26T16:43:44.102Z,24.10
2018-05-26T16:46:11.677Z,24.00
2018-05-26T16:48:39.325Z,24.10
2018-05-26T16:51:07.060Z,24.10
2018-05-26T16:53:34.763Z,24.10
2018-05-26T16:56:02.356Z,24.20
2018-05-26T16:58:29.993Z,24.10
2018-05-26T17:00:57.629Z,24.00
2018-05-26T17:03:26.628Z,23.60
2018-05-26T17:05:54.307Z,23.60
2018-05-26T17:08:22.679Z,23.70
2018-05-26T17:10:50.495Z,23.60
2018-05-26T17:13:18.437Z,23.60
2018-05-26T17:15:46.834Z,23.30
2018-05-26T17:18:14.530Z,23.30
2018-05-26T17:20:42.217Z,23.20
2018-05-26T17:23:10.054Z,23.10
2018-05-26T17:25:37.737Z,23.00
2018-05-26T17:28:05.364Z,22.90
2018-05-26T17:30:33.121Z,23.00
2018-05-26T17:33:01.630Z,22.70
2018-05-26T17:35:29.313Z,22.70
2018-05-26T17:37:57.180Z,22.60
2018-05-26T17:40:24.865Z,22.70
2018-05-26T17:42:53.256Z,22.50
2018-05-26T17:45:21.636Z,22.50
2018-05-26T17:47:49.300Z,22.50
2018-05-26T17:50:16.968Z,22.40
2018-05-26T17:52:44.571Z,22.30
2018-05-26T17:55:12.167Z,22.30
2018-05-26T17:57:40.150Z,22.20
2018-05-26T18:00:07.794Z,22.10
2018-05-26T18:02:36.837Z,22.10
2018-05-26T18:05:04.496Z,22.00
2018-05-26T18:07:32.116Z,21.90
2018-05-26T18:09:59.735Z,21.80
2018-05-26T18:12:27.433Z,21.80
2018-05-26T18:14:55.047Z,21.60
2018-05-26T18:17:22.646Z,21.60
2018-05-26T18:19:50.521Z,21.50
2018-05-26T18:22:18.276Z,21.40
2018-05-26T18:24:45.919Z,21.30
2018-05-26T18:27:13.533Z,21.20
2018-05-26T18:29:41.185Z,21.20
2018-05-26T18:32:08.818Z,21.20
2018-05-26T18:34:37.179Z,21.00
2018-05-26T18:37:05.607Z,20.80
2018-05-26T18:39:33.248Z,20.70
2018-05-26T18:42:00.892Z,20.80
2018-05-26T18:44:28.858Z,20.70
2018-05-26T18:46:56.487Z,20.70
2018-05-26T18:49:24.077Z,20.60
2018-05-26T18:51:51.709Z,20.60
2018-05-26T18:54:19.378Z,20.50
2018-05-26T18:56:46.987Z,20.40
2018-05-26T18:59:14.607Z,20.30
2018-05-26T19:01:42.988Z,20.10
2018-05-26T19:04:11.386Z,20.00
2018-05-26T19:06:39.086Z,20.00
2018-05-26T19:09:06.690Z,20.00
2018-05-26T19:11:34.283Z,19.80
2018-05-26T19:14:01.984Z,19.70
2018-05-26T19:16:29.585Z,19.70
2018-05-26T19:18:57.255Z,19.60
2018-05-26T19:21:24.874Z,19.50
2018-05-26T19:23:52.493Z,19.50
2018-05-26T19:26:21.130Z,19.40
2018-05-26T19:28:48.752Z,19.30
2018-05-26T19:31:16.388Z,19.30
2018-05-26T19:33:44.011Z,19.20
2018-05-26T19:36:11.620Z,19.20
2018-05-26T19:38:40.155Z,19.10
2018-05-26T19:41:07.757Z,19.00
2018-05-26T19:43:35.358Z,18.90
2018-05-26T19:46:03.782Z,18.80
2018-05-26T19:48:31.411Z,18.80
2018-05-26T19:50:59.821Z,18.70
2018-05-26T19:53:27.439Z,18.70
2018-05-26T19:55:55.064Z,18.70
2018-05-26T19:58:22.717Z,18.60
2018-05-26T20:00:50.400Z,18.50
2018-05-26T20:03:18.038Z,18.50
2018-05-26T20:05:46.432Z,18.40
2018-05-26T20:08:14.828Z,18.40
2018-05-26T20:10:43.212Z,18.30
2018-05-26T20:13:10.881Z,18.30
2018-05-26T20:15:39.388Z,18.40
2018-05-26T20:18:07.024Z,18.30
2018-05-26T20:20:34.653Z,18.30
2018-05-26T20:23:02.275Z,18.30
2018-05-26T20:25:29.874Z,18.30
2018-05-26T20:27:57.532Z,18.30
2018-05-26T20:30:25.245Z,18.20
2018-05-26T20:32:53.640Z,18.10
2018-05-26T20:35:21.275Z,18.10
2018-05-26T20:37:48.929Z,18.10
2018-05-26T20:40:16.571Z,18.10
2018-05-26T20:42:44.216Z,18.10
2018-05-26T20:45:12.673Z,17.90
2018-05-26T20:47:41.034Z,17.80
2018-05-26T20:50:08.709Z,17.80
2018-05-26T20:52:36.327Z,17.70
2018-05-26T20:55:03.956Z,17.60
2018-05-26T20:57:31.596Z,17.50
2018-05-26T20:59:59.232Z,17.50
2018-05-26T21:02:26.872Z,17.40
2018-05-26T21:04:54.517Z,17.30
2018-05-26T21:07:22.154Z,17.20
2018-05-26T21:09:49.814Z,17.20
2018-05-26T21:12:17.442Z,17.10
2018-05-26T21:14:45.095Z,17.10
2018-05-26T21:17:12.784Z,17.10
2018-05-26T21:19:40.429Z,17.00
2018-05-26T21:22:08.034Z,17.00
2018-05-26T21:24:35.652Z,16.90
2018-05-26T21:27:03.246Z,16.80
2018-05-26T21:29:30.843Z,16.80
2018-05-26T21:31:58.497Z,16.70
2018-05-26T21:34:26.131Z,16.60
2018-05-26T21:36:54.548Z,16.50
2018-05-26T21:39:22.163Z,16.50
2018-05-26T21:41:49.782Z,16.40
2018-05-26T21:44:17.603Z,16.30
2018-05-26T21:46:46.141Z,16.30
2018-05-26T21:49:13.748Z,16.20
2018-05-26T21:51:42.184Z,16.20
2018-05-26T21:54:09.816Z,16.20
2018-05-26T21:56:38.175Z,16.10
2018-05-26T21:59:05.832Z,16.10
2018-05-26T22:01:33.463Z,16.10
2018-05-26T22:04:01.062Z,16.00
2018-05-26T22:06:28.691Z,16.00
2018-05-26T22:08:56.303Z,15.90
2018-05-26T22:11:23.921Z,15.90
2018-05-26T22:13:51.590Z,15.80
2018-05-26T22:16:20.390Z,15.70
2018-05-26T22:18:48.002Z,15.60
2018-05-26T22:21:15.606Z,15.60
2018-05-26T22:23:43.430Z,15.50
2018-05-26T22:26:11.024Z,15.50
2018-05-26T22:28:38.674Z,15.40
2018-05-26T22:31:06.312Z,15.40
2018-05-26T22:33:33.975Z,15.40
2018-05-26T22:36:01.575Z,15.30
2018-05-26T22:38:30.010Z,15.20
2018-05-26T22:40:57.941Z,15.20
2018-05-26T22:43:25.561Z,15.20
2018-05-26T22:45:53.161Z,15.10
2018-05-26T22:48:21.564Z,15.10
2018-05-26T22:50:49.987Z,15.00
2018-05-26T22:53:17.682Z,15.00
2018-05-26T22:55:45.278Z,14.90
2018-05-26T22:58:13.733Z,14.90
2018-05-26T23:00:41.329Z,14.90
2018-05-26T23:03:09.721Z,14.80
2018-05-26T23:05:38.361Z,14.80
2018-05-26T23:08:05.954Z,14.80
2018-05-26T23:10:33.566Z,14.80
2018-05-26T23:13:01.191Z,14.80
2018-05-26T23:15:28.808Z,14.70
2018-05-26T23:17:56.444Z,14.70
2018-05-26T23:20:24.817Z,14.60
2018-05-26T23:22:53.534Z,14.50
2018-05-26T23:25:21.179Z,14.50
2018-05-26T23:27:49.556Z,14.40
2018-05-26T23:30:17.225Z,14.40
2018-05-26T23:32:45.606Z,14.40
2018-05-26T23:35:13.997Z,14.30
2018-05-26T23:37:42.371Z,14.30
2018-05-26T23:40:10.764Z,14.30
2018-05-26T23:42:39.210Z,14.30
2018-05-26T23:45:06.811Z,14.30
2018-05-26T23:47:35.225Z,14.20
2018-05-26T23:50:02.829Z,14.20
2018-05-26T23:52:30.423Z,14.10
2018-05-26T23:54:58.841Z,14.10
2018-05-26T23:57:26.505Z,14.10
2018-05-26T23:59:54.117Z,14.20
